Предлагаем Вашему вниманию английскую версию страницы: AUTOTAF.ME UNII - aviation weather forecast Enisejsk (Enisejsk)

AUTOTAF UNII - авиапрогноз Енисейск (Енисейск)

Сегодня рассвет 01:33 UTC, восход солнца 02:21 UTC,
местный полдень 06:02 UTC, заход солнца 09:42 UTC,
наступление темноты 10:30 UTC.

Краткий прогноз UNII на 9 часов

AUTOTAF.ME UNII 190800Z 1909/1918 26006MPS 9999 OVC006    
  BECMG 1910/1912 VRB02MPS   
  BECMG 1916/1918 28006MPS

Детальный прогноз UNII на 24 часа

AUTOTAF.ME UNII 190800Z 1909/2009 26006MPS 9999 OVC006 TXM14/1909Z TNM24/2003Z  
  BECMG 1910/1912 VRB02MPS   
  BECMG 1916/1918 28006MPS  
  BECMG 1919/1921 OVC008  
  FM200000 27003MPS 1000 BR BKN003 
  FM200300 VRB02MPS 1000 BR BKN009 
  FM200600 VRB02MPS 9999 FEW170 
  FM200900 VRB02MPS 1000 BR BKN003

Подробный табличный прогноз

Время (UTC) miniAUTOTAF на 3 ч WX FZLVL
M AGL
ICE TURB Т
(°С)
Тd
(°С)
f(%) QNH
(гПа)
WIND/T
06 26006MPS 9999 BKN006 SFC MOD FL20/FL30 MOD SFC/FL30 -13 -19 62 1010 ...
09 26006MPS 9999 OVC006 SFC MOD FL20/FL30 MOD SFC/FL30 -14 -20 61 1011 ...
12 VRB02MPS 9999 OVC007 SFC MOD FL10/FL20 MOD FL30/FL40 -17 -23 59 1014 ...
15 VRB02MPS 9999 OVC007 SFC MOD SFC/FL30 -19 -25 59 1014 ...
18 28006MPS 9999 OVC007 SFC MOD SFC/FL20 -20 -26 60 1017 ...
21 28006G11MPS 9999 OVC008 SFC MOD SFC/FL20 -20 -26 61 1019 ...
20.01.2021
00 27003MPS 1000 BR BKN003 BR SFC -22 -27 63 1023 ...
03 VRB02MPS 1000 BR BKN009 BR SFC -24 -28 66 1027 ...
06 VRB02MPS 9999 FEW170 SFC -22 -27 59 1029 ...
09 VRB02MPS 1000 BR BKN003 BR SFC MOD SFC/FL20 -21 -27 60 1030 ...
12 VRB02MPS 1000 BR BKN010 BR SFC -23 -28 67 1032 ...
15 VRB02MPS 0500 FG IC SKC FG IC SFC -25 -28 74 1032 ...
18 VRB02MPS 0500 FG IC SKC FG IC SFC -25 -29 73 1033 ...
21 VRB02MPS 0200 FG IC SKC FG IC SFC MOD FL70/FL80 -26 -29 77 1032 ...
21.01.2021
00 VRB02MPS 1000 BR FEW250 BR SFC MOD FL50/FL60 -28 -31 75 1032 ...
03 VRB02MPS 9999 SCT160 SFC -29 -32 72 1029 ...


Широта 58.47463°, долгота 92.11218°, высота 77 м абс.
Средняя высота рельефа местности 103 м абс.
Прогнозы обновляются четыре раза в сутки: в 02, 08, 14, 20 ч всемирного времени.


Выбрать прогноз по другой модели Енисейск (Енисейск)
Онлайн-сводка гроз по Енисейск (Енисейск) (для РФ и ближнего зарубежья)
Карта фактических гроз в окрестностях Енисейск (Енисейск)
Динамические прогностические карты (ventusky.com)
Прогностическая карта высоты нижней границы облаков по Енисейск (Енисейск) (windy.com)
Выбрать другой город

Прогноз предназначен для личного научно-познавательного использования частными лицами
и не предназначен для принятия важных решений и выполнения реальных полётов воздушных судов

При копировании или ином использовании любых материалов данного сайта ссылка на © meteocenter.asia обязательна.

0.51/0.9